createdAt,value
2022-11-29T00:00:34.371Z,11.90
2022-11-29T00:03:01.666Z,16.08
2022-11-29T00:05:28.953Z,13.02
2022-11-29T00:07:56.113Z,15.70
2022-11-29T00:10:23.242Z,12.98
2022-11-29T00:12:50.407Z,12.27
2022-11-29T00:15:17.740Z,12.15
2022-11-29T00:17:44.883Z,12.60
2022-11-29T00:20:12.332Z,15.13
2022-11-29T00:22:39.523Z,12.93
2022-11-29T00:25:07.265Z,14.43
2022-11-29T00:27:34.466Z,15.05
2022-11-29T00:30:01.651Z,16.17
2022-11-29T00:32:28.761Z,14.52
2022-11-29T00:34:59.349Z,18.38
2022-11-29T00:37:26.806Z,13.57
2022-11-29T00:39:53.901Z,13.75
2022-11-29T00:42:21.030Z,16.63
2022-11-29T00:44:48.166Z,12.38
2022-11-29T00:47:15.326Z,12.13
2022-11-29T00:49:42.476Z,12.10
2022-11-29T00:52:09.654Z,12.23
2022-11-29T00:54:36.791Z,13.63
2022-11-29T00:57:03.980Z,16.02
2022-11-29T00:59:31.102Z,11.65
2022-11-29T01:01:58.281Z,11.10
2022-11-29T01:04:25.389Z,12.27
2022-11-29T01:06:53.430Z,11.07
2022-11-29T01:09:20.755Z,11.48
2022-11-29T01:11:50.071Z,9.40
2022-11-29T01:14:17.224Z,11.95
2022-11-29T01:16:44.427Z,10.88
2022-11-29T01:19:11.620Z,10.48
2022-11-29T01:21:38.922Z,10.32
2022-11-29T01:24:06.215Z,9.70
2022-11-29T01:26:33.644Z,13.30
2022-11-29T01:29:00.889Z,10.63
2022-11-29T01:31:29.590Z,11.38
2022-11-29T01:33:57.341Z,10.98
2022-11-29T01:36:24.974Z,10.63
2022-11-29T01:38:52.636Z,10.85
2022-11-29T01:41:26.250Z,8.90
2022-11-29T01:44:01.134Z,9.27
2022-11-29T01:46:29.935Z,9.70
2022-11-29T01:48:59.694Z,12.27
2022-11-29T01:51:27.432Z,9.68
2022-11-29T01:53:55.158Z,9.23
2022-11-29T01:56:23.148Z,11.98
2022-11-29T01:58:50.324Z,8.95
2022-11-29T02:01:17.563Z,9.52
2022-11-29T02:03:44.740Z,9.88
2022-11-29T02:06:12.016Z,9.75
2022-11-29T02:08:41.197Z,6.13
2022-11-29T02:11:14.463Z,7.20
2022-11-29T02:13:58.411Z,7.78
2022-11-29T02:16:32.607Z,7.95
2022-11-29T02:19:02.920Z,7.22
2022-11-29T02:21:43.649Z,7.25
2022-11-29T02:24:29.699Z,8.18
2022-11-29T02:27:00.000Z,7.05
2022-11-29T02:29:33.214Z,7.65
2022-11-29T02:32:18.934Z,6.90
2022-11-29T02:35:12.229Z,7.32
2022-11-29T02:37:47.936Z,6.40
2022-11-29T02:40:27.642Z,9.13
2022-11-29T02:42:57.543Z,6.95
2022-11-29T02:45:39.745Z,7.97
2022-11-29T02:48:25.373Z,7.82
2022-11-29T02:50:58.559Z,6.38
2022-11-29T02:53:31.094Z,8.82
2022-11-29T02:55:58.218Z,7.75
2022-11-29T02:58:25.371Z,6.20
2022-11-29T03:00:58.736Z,6.03
2022-11-29T03:03:28.144Z,9.80
2022-11-29T03:06:05.352Z,6.82
2022-11-29T03:08:35.474Z,7.43
2022-11-29T03:11:21.390Z,8.00
2022-11-29T03:13:52.653Z,7.05
2022-11-29T03:16:29.666Z,6.05
2022-11-29T03:18:56.860Z,5.50
2022-11-29T03:21:38.812Z,6.68
2022-11-29T03:24:10.109Z,7.32
2022-11-29T03:26:41.961Z,7.53
2022-11-29T03:29:27.892Z,7.10
2022-11-29T03:32:02.623Z,6.57
2022-11-29T03:34:57.146Z,5.50
2022-11-29T03:37:43.633Z,5.65
2022-11-29T03:40:12.398Z,8.00
2022-11-29T03:42:44.087Z,7.50
2022-11-29T03:45:11.264Z,7.88
2022-11-29T03:47:45.767Z,6.55
2022-11-29T03:50:20.017Z,7.60
2022-11-29T03:52:52.877Z,6.05
2022-11-29T03:55:20.088Z,6.28
2022-11-29T03:58:09.548Z,7.30
2022-11-29T04:00:45.960Z,8.60
2022-11-29T04:03:19.047Z,6.65
2022-11-29T04:06:24.591Z,7.15
2022-11-29T04:08:51.727Z,7.18
2022-11-29T04:11:56.078Z,7.20
2022-11-29T04:14:35.143Z,7.18
2022-11-29T04:17:14.405Z,7.22
2022-11-29T04:20:00.758Z,8.18
2022-11-29T04:22:46.396Z,7.32
2022-11-29T04:25:25.875Z,6.75
2022-11-29T04:28:08.102Z,9.05
2022-11-29T04:30:42.639Z,7.40
2022-11-29T04:33:10.356Z,6.55
2022-11-29T04:35:37.491Z,8.15
2022-11-29T04:38:04.655Z,6.95
2022-11-29T04:40:34.571Z,6.75
2022-11-29T04:43:16.936Z,8.52
2022-11-29T04:46:01.698Z,5.80
2022-11-29T04:48:49.092Z,5.90
2022-11-29T04:51:34.624Z,8.25
2022-11-29T04:54:01.747Z,6.32
2022-11-29T04:56:34.790Z,6.32
2022-11-29T04:59:08.309Z,5.47
2022-11-29T05:01:53.969Z,7.10
2022-11-29T05:04:24.315Z,6.25
2022-11-29T05:07:02.192Z,5.75
2022-11-29T05:09:35.332Z,5.55
2022-11-29T05:12:16.786Z,7.25
2022-11-29T05:15:02.168Z,6.18
2022-11-29T05:20:01.694Z,5.43
2022-11-29T05:22:34.682Z,5.95
2022-11-29T05:25:11.452Z,4.38
2022-11-29T05:27:41.323Z,7.88
2022-11-29T05:30:13.534Z,6.32
2022-11-29T05:32:40.629Z,4.82
2022-11-29T05:35:19.705Z,4.95
2022-11-29T05:37:50.358Z,5.47
2022-11-29T05:40:20.326Z,5.85
2022-11-29T05:42:47.469Z,5.13
2022-11-29T05:45:17.804Z,5.35
2022-11-29T05:47:54.034Z,4.80
2022-11-29T05:50:43.209Z,6.70
2022-11-29T05:53:24.662Z,5.05
2022-11-29T05:56:02.139Z,6.38
2022-11-29T05:58:48.017Z,5.28
2022-11-29T06:01:19.391Z,5.90
2022-11-29T06:03:52.722Z,8.00
2022-11-29T06:06:32.137Z,6.03
2022-11-29T06:09:04.760Z,6.68
2022-11-29T06:11:34.244Z,5.60
2022-11-29T06:14:20.170Z,7.30
2022-11-29T06:16:47.913Z,7.80
2022-11-29T06:19:44.243Z,6.07
2022-11-29T06:22:21.389Z,6.57
2022-11-29T06:24:57.131Z,7.47
2022-11-29T06:27:36.718Z,6.30
2022-11-29T06:30:17.038Z,5.65
2022-11-29T06:32:47.594Z,7.53
2022-11-29T06:35:34.837Z,6.70
2022-11-29T06:38:10.619Z,7.75
2022-11-29T06:40:37.913Z,6.63
2022-11-29T06:43:05.194Z,5.63
2022-11-29T06:45:32.550Z,6.05
2022-11-29T06:48:02.660Z,6.57
2022-11-29T06:50:48.660Z,6.90
2022-11-29T06:53:20.255Z,5.80
2022-11-29T06:55:47.414Z,5.68
2022-11-29T06:58:20.425Z,9.10
2022-11-29T07:01:07.871Z,8.30
2022-11-29T07:03:53.802Z,6.35
2022-11-29T07:06:27.094Z,6.30
2022-11-29T07:09:00.490Z,6.10
2022-11-29T07:11:28.030Z,5.72
2022-11-29T07:13:55.411Z,6.20
2022-11-29T07:16:39.534Z,6.88
2022-11-29T07:19:25.513Z,7.82
2022-11-29T07:22:02.277Z,5.75
2022-11-29T07:24:29.407Z,5.85
2022-11-29T07:27:01.244Z,6.32
2022-11-29T07:29:31.430Z,5.78
2022-11-29T07:32:08.235Z,5.78
2022-11-29T07:34:50.470Z,6.65
2022-11-29T07:37:24.192Z,6.72
2022-11-29T07:40:14.515Z,7.53
2022-11-29T07:42:44.728Z,6.68
2022-11-29T07:45:11.851Z,11.10
2022-11-29T07:47:39.026Z,10.73
2022-11-29T07:50:06.488Z,9.73
2022-11-29T07:52:34.062Z,8.40
2022-11-29T07:55:02.106Z,9.88
2022-11-29T07:57:29.265Z,7.72
2022-11-29T07:59:56.446Z,8.57
2022-11-29T08:02:30.792Z,10.32
2022-11-29T08:04:58.294Z,10.00
2022-11-29T08:07:25.549Z,10.35
2022-11-29T08:09:52.766Z,10.55
2022-11-29T08:12:20.234Z,10.32
2022-11-29T08:14:47.606Z,9.52
2022-11-29T08:17:14.937Z,9.50
2022-11-29T08:19:42.032Z,11.65
2022-11-29T08:22:09.170Z,10.15
2022-11-29T08:24:36.292Z,11.85
2022-11-29T08:27:03.433Z,12.18
2022-11-29T08:29:30.869Z,11.43
2022-11-29T08:31:58.077Z,12.10
2022-11-29T08:34:25.752Z,12.07
2022-11-29T08:36:55.263Z,12.02
2022-11-29T08:39:22.863Z,11.00
2022-11-29T08:41:50.575Z,11.18
2022-11-29T08:44:18.217Z,11.82
2022-11-29T08:47:04.221Z,10.85
2022-11-29T08:49:31.380Z,10.75
2022-11-29T08:52:37.098Z,10.68
2022-11-29T08:55:04.314Z,12.02
2022-11-29T08:57:39.754Z,12.52
2022-11-29T09:00:08.135Z,9.95
2022-11-29T09:02:36.328Z,11.48
2022-11-29T09:05:03.817Z,9.32
2022-11-29T09:07:31.014Z,12.77
2022-11-29T09:09:58.177Z,8.68
2022-11-29T09:12:25.375Z,8.50
2022-11-29T09:14:52.535Z,8.90
2022-11-29T09:17:19.699Z,8.80
2022-11-29T09:19:47.258Z,8.77
2022-11-29T09:22:14.420Z,8.95
2022-11-29T09:24:41.570Z,6.95
2022-11-29T09:27:08.763Z,8.85
2022-11-29T09:29:36.394Z,9.65
2022-11-29T09:32:03.670Z,8.45
2022-11-29T09:34:30.948Z,7.72
2022-11-29T09:36:58.103Z,7.65
2022-11-29T09:39:25.248Z,10.20
2022-11-29T09:41:55.161Z,9.35
2022-11-29T09:44:40.444Z,7.47
2022-11-29T09:49:40.539Z,9.75
2022-11-29T09:52:26.280Z,6.68
2022-11-29T09:55:02.689Z,6.60
2022-11-29T09:57:31.486Z,5.55
2022-11-29T10:00:02.727Z,7.35
2022-11-29T10:02:29.875Z,6.82
2022-11-29T10:04:59.540Z,5.97
2022-11-29T10:07:48.054Z,5.53
2022-11-29T10:10:23.123Z,5.40
2022-11-29T10:12:52.762Z,4.78
2022-11-29T10:15:34.327Z,5.80
2022-11-29T10:18:17.665Z,4.53
2022-11-29T10:20:48.994Z,3.47
2022-11-29T10:23:32.600Z,4.05
2022-11-29T10:25:59.864Z,4.28
2022-11-29T10:28:30.576Z,3.65
2022-11-29T10:31:00.932Z,5.40
2022-11-29T10:33:30.534Z,4.35
2022-11-29T10:35:59.025Z,4.55
2022-11-29T10:38:31.229Z,3.85
2022-11-29T10:41:03.141Z,4.28
2022-11-29T10:43:30.410Z,3.95
2022-11-29T10:45:58.880Z,3.30
2022-11-29T10:48:28.473Z,4.00
2022-11-29T10:50:55.733Z,3.53
2022-11-29T10:53:27.608Z,3.97
2022-11-29T10:56:08.134Z,4.20
2022-11-29T10:58:35.434Z,2.97
2022-11-29T11:01:14.105Z,3.03
2022-11-29T11:03:42.363Z,3.90
2022-11-29T11:06:12.008Z,4.25
2022-11-29T11:08:41.991Z,3.45
2022-11-29T11:11:09.444Z,3.38
2022-11-29T11:13:37.349Z,3.08
2022-11-29T11:16:20.966Z,2.75
2022-11-29T11:18:48.729Z,3.03
2022-11-29T11:21:16.973Z,3.42
2022-11-29T11:23:52.314Z,2.20
2022-11-29T11:26:20.035Z,2.20
2022-11-29T11:28:52.024Z,2.22
2022-11-29T11:31:27.277Z,2.80
2022-11-29T11:33:54.476Z,3.00
2022-11-29T11:36:21.615Z,3.05
2022-11-29T11:38:59.005Z,2.50
2022-11-29T11:42:03.526Z,3.05
2022-11-29T11:44:52.308Z,2.38
2022-11-29T11:47:29.840Z,3.05
2022-11-29T11:50:03.443Z,4.75
2022-11-29T11:52:30.539Z,2.70
2022-11-29T11:55:17.630Z,2.45
2022-11-29T11:57:45.007Z,3.85
2022-11-29T12:01:01.685Z,2.17
2022-11-29T12:03:37.974Z,9.55
2022-11-29T12:06:05.112Z,2.30
2022-11-29T12:08:32.992Z,4.55
2022-11-29T12:11:07.195Z,2.13
2022-11-29T12:13:36.425Z,3.45
2022-11-29T12:16:10.650Z,2.42
2022-11-29T12:18:47.190Z,3.22
2022-11-29T12:21:16.657Z,2.83
2022-11-29T12:23:44.474Z,3.05
2022-11-29T12:26:58.357Z,3.30
2022-11-29T12:29:28.310Z,3.13
2022-11-29T12:31:55.456Z,3.83
2022-11-29T12:34:25.375Z,2.90
2022-11-29T12:37:10.635Z,4.65
2022-11-29T12:39:40.579Z,5.35
2022-11-29T12:42:07.681Z,3.38
2022-11-29T12:44:47.240Z,3.80
2022-11-29T12:47:35.058Z,2.70
2022-11-29T12:50:13.601Z,1.30
2022-11-29T12:52:40.698Z,2.10
2022-11-29T12:55:17.248Z,2.67
2022-11-29T12:58:10.777Z,1.75
2022-11-29T13:00:56.817Z,2.15
2022-11-29T13:03:34.867Z,1.90
2022-11-29T13:06:14.894Z,2.42
2022-11-29T13:08:54.295Z,4.40
2022-11-29T13:11:36.488Z,2.35
2022-11-29T13:14:34.645Z,2.60
2022-11-29T13:16:54.133Z,3.50
2022-11-29T13:19:24.060Z,3.28
2022-11-29T13:22:03.244Z,2.88
2022-11-29T13:24:53.115Z,5.97
2022-11-29T13:27:24.369Z,3.00
2022-11-29T13:29:51.891Z,3.80
2022-11-29T13:32:37.800Z,4.38
2022-11-29T13:35:12.954Z,3.67
2022-11-29T13:37:49.367Z,4.95
2022-11-29T13:40:31.384Z,4.50
2022-11-29T13:43:03.637Z,4.38
2022-11-29T13:45:43.200Z,5.40
2022-11-29T13:48:28.766Z,3.20
2022-11-29T13:50:57.354Z,4.38
2022-11-29T13:53:25.907Z,5.47
2022-11-29T13:56:01.132Z,6.65
2022-11-29T13:58:28.272Z,5.50
2022-11-29T14:01:01.622Z,6.32
2022-11-29T14:03:30.763Z,6.47
2022-11-29T14:06:12.252Z,7.28
2022-11-29T14:11:45.015Z,7.28
2022-11-29T14:14:21.013Z,8.23
2022-11-29T14:16:50.997Z,9.63
2022-11-29T14:19:22.531Z,10.20
2022-11-29T14:22:01.907Z,11.13
2022-11-29T14:24:35.435Z,14.48
2022-11-29T14:27:14.477Z,15.02
2022-11-29T14:29:50.879Z,15.27
2022-11-29T14:32:39.244Z,15.88
2022-11-29T14:35:11.822Z,16.52
2022-11-29T14:37:59.684Z,18.98
2022-11-29T14:40:29.428Z,18.27
2022-11-29T14:42:56.649Z,18.05
2022-11-29T14:45:31.418Z,16.17
2022-11-29T14:47:58.791Z,20.42
2022-11-29T14:50:31.861Z,17.05
2022-11-29T14:52:59.371Z,16.90
2022-11-29T14:55:26.457Z,16.85
2022-11-29T14:58:06.272Z,16.65
2022-11-29T15:00:33.552Z,17.73
2022-11-29T15:03:12.992Z,17.13
2022-11-29T15:05:51.681Z,16.23
2022-11-29T15:08:37.972Z,14.80
2022-11-29T15:11:25.166Z,18.58
2022-11-29T15:13:59.519Z,19.42
2022-11-29T15:16:38.679Z,17.70
2022-11-29T15:19:05.843Z,19.98
2022-11-29T15:21:35.849Z,16.90
2022-11-29T15:24:10.570Z,20.08
2022-11-29T15:26:37.712Z,17.67
2022-11-29T15:29:19.537Z,18.33
2022-11-29T15:31:49.190Z,21.00
2022-11-29T15:34:20.614Z,20.65
2022-11-29T15:36:47.948Z,21.73
2022-11-29T15:39:28.614Z,23.55
2022-11-29T15:42:22.055Z,23.38
2022-11-29T15:44:49.430Z,24.25
2022-11-29T15:47:17.482Z,23.48
2022-11-29T15:49:44.670Z,26.70
2022-11-29T15:52:18.539Z,21.88
2022-11-29T15:54:50.703Z,22.23
2022-11-29T15:57:20.555Z,28.33
2022-11-29T15:59:49.878Z,25.33
2022-11-29T16:02:19.423Z,26.73
2022-11-29T16:04:51.150Z,29.35
2022-11-29T16:07:18.731Z,27.75
2022-11-29T16:09:48.166Z,28.75
2022-11-29T16:12:16.290Z,24.42
2022-11-29T16:14:50.403Z,26.80
2022-11-29T16:17:19.007Z,28.43
2022-11-29T16:19:46.971Z,30.00
2022-11-29T16:22:22.647Z,30.48
2022-11-29T16:24:53.686Z,27.83
2022-11-29T16:27:22.166Z,34.78
2022-11-29T16:29:50.662Z,29.40
2022-11-29T16:32:31.734Z,30.17
2022-11-29T16:35:06.279Z,29.92
2022-11-29T16:37:38.832Z,32.05
2022-11-29T16:40:06.392Z,33.00
2022-11-29T16:42:34.037Z,29.65
2022-11-29T16:45:04.544Z,33.08
2022-11-29T16:48:01.513Z,34.38
2022-11-29T16:50:29.534Z,31.83
2022-11-29T16:52:57.260Z,37.55
2022-11-29T16:55:24.586Z,35.45
2022-11-29T16:57:52.273Z,34.92
2022-11-29T17:00:23.949Z,38.22
2022-11-29T17:02:51.182Z,41.47
2022-11-29T17:05:18.364Z,36.80
2022-11-29T17:07:45.689Z,41.60
2022-11-29T17:10:16.057Z,39.80
2022-11-29T17:12:47.750Z,40.35
2022-11-29T17:15:15.476Z,41.28
2022-11-29T17:17:43.468Z,36.28
2022-11-29T17:20:12.139Z,35.67
2022-11-29T17:22:39.280Z,34.33
2022-11-29T17:25:06.521Z,38.90
2022-11-29T17:27:34.874Z,38.20
2022-11-29T17:30:02.018Z,38.63
2022-11-29T17:32:29.106Z,35.97
2022-11-29T17:34:56.266Z,38.38
2022-11-29T17:37:23.422Z,39.65
2022-11-29T17:39:50.574Z,37.92
2022-11-29T17:42:17.815Z,35.75
2022-11-29T17:44:44.921Z,41.55
2022-11-29T17:47:12.083Z,39.15
2022-11-29T17:49:39.259Z,35.08
2022-11-29T17:52:06.514Z,42.88
2022-11-29T17:54:33.614Z,38.65
2022-11-29T17:57:01.085Z,40.08
2022-11-29T17:59:28.493Z,42.00
2022-11-29T18:01:55.688Z,44.05
2022-11-29T18:04:22.902Z,38.10
2022-11-29T18:06:50.473Z,40.63
2022-11-29T18:09:18.573Z,40.28
2022-11-29T18:11:49.103Z,40.00
2022-11-29T18:14:21.164Z,46.88
2022-11-29T18:16:48.500Z,53.35
2022-11-29T18:21:19.824Z,45.40
2022-11-29T18:23:47.108Z,47.10
2022-11-29T18:26:15.658Z,48.78
2022-11-29T18:28:43.450Z,49.38
2022-11-29T18:31:12.309Z,47.88
2022-11-29T18:33:40.398Z,44.17
2022-11-29T18:36:10.359Z,44.83
2022-11-29T18:38:38.257Z,39.88
2022-11-29T18:41:09.646Z,41.50
2022-11-29T18:43:39.978Z,38.97
2022-11-29T18:46:08.589Z,39.80
2022-11-29T18:48:36.014Z,43.10
2022-11-29T18:51:04.048Z,41.03
2022-11-29T18:53:31.627Z,39.97
2022-11-29T18:56:06.072Z,42.50
2022-11-29T18:58:33.731Z,43.05
2022-11-29T19:01:08.440Z,44.60
2022-11-29T19:03:36.618Z,42.15
2022-11-29T19:06:05.543Z,40.63
2022-11-29T19:08:33.168Z,39.83
2022-11-29T19:11:04.345Z,38.10
2022-11-29T19:13:31.518Z,37.63
2022-11-29T19:15:58.822Z,34.42
2022-11-29T19:18:25.982Z,37.30
2022-11-29T19:20:53.667Z,36.85
2022-11-29T19:23:21.405Z,40.58
2022-11-29T19:25:48.580Z,36.42
2022-11-29T19:28:15.749Z,36.70
2022-11-29T19:30:42.963Z,35.75
2022-11-29T19:33:10.148Z,36.78
2022-11-29T19:35:37.387Z,40.28
2022-11-29T19:38:04.520Z,38.47
2022-11-29T19:40:31.646Z,37.95
2022-11-29T19:42:58.935Z,38.50
2022-11-29T19:45:26.395Z,35.33
2022-11-29T19:47:54.310Z,38.03
2022-11-29T19:50:21.463Z,34.92
2022-11-29T19:52:48.625Z,31.95
2022-11-29T19:55:15.967Z,34.58
2022-11-29T19:57:43.126Z,31.90
2022-11-29T20:00:10.489Z,36.70
2022-11-29T20:02:37.679Z,32.70
2022-11-29T20:05:05.055Z,37.90
2022-11-29T20:07:32.226Z,35.08
2022-11-29T20:09:59.551Z,30.83
2022-11-29T20:12:26.709Z,33.88
2022-11-29T20:14:53.842Z,30.10
2022-11-29T20:17:20.968Z,31.52
2022-11-29T20:19:48.387Z,33.15
2022-11-29T20:22:15.794Z,34.17
2022-11-29T20:24:45.655Z,33.80
2022-11-29T20:27:12.985Z,35.15
2022-11-29T20:29:40.102Z,34.17
2022-11-29T20:32:07.317Z,35.50
2022-11-29T20:34:34.623Z,34.22
2022-11-29T20:37:07.336Z,36.25
2022-11-29T20:39:40.722Z,35.08
2022-11-29T20:42:26.017Z,33.85
2022-11-29T20:47:21.938Z,34.03
2022-11-29T20:49:49.291Z,36.72
2022-11-29T20:52:19.423Z,32.53
2022-11-29T20:54:46.611Z,31.88
2022-11-29T20:57:13.733Z,34.42
2022-11-29T20:59:40.844Z,34.33
2022-11-29T21:02:07.984Z,32.33
2022-11-29T21:04:35.179Z,34.28
2022-11-29T21:07:02.356Z,30.50
2022-11-29T21:09:29.455Z,34.95
2022-11-29T21:11:56.679Z,37.03
2022-11-29T21:14:23.935Z,33.13
2022-11-29T21:16:51.193Z,30.15
2022-11-29T21:19:23.296Z,32.47
2022-11-29T21:22:03.875Z,30.67
2022-11-29T21:24:36.912Z,34.58
2022-11-29T21:27:04.465Z,30.13
2022-11-29T21:29:31.653Z,29.40
2022-11-29T21:32:00.776Z,29.42
2022-11-29T21:34:27.946Z,29.65
2022-11-29T21:36:59.064Z,31.15
2022-11-29T21:39:30.410Z,31.52
2022-11-29T21:41:57.644Z,35.33
2022-11-29T21:44:24.900Z,31.70
2022-11-29T21:46:52.146Z,30.02
2022-11-29T21:49:19.307Z,30.92
2022-11-29T21:51:46.414Z,28.73
2022-11-29T21:54:13.563Z,31.85
2022-11-29T21:56:40.783Z,33.67
2022-11-29T21:59:07.900Z,31.25
2022-11-29T22:01:35.158Z,36.20
2022-11-29T22:04:02.387Z,35.33
2022-11-29T22:06:30.228Z,33.05
2022-11-29T22:08:57.448Z,35.13
2022-11-29T22:11:31.041Z,36.30
2022-11-29T22:14:15.245Z,35.85
2022-11-29T22:16:45.326Z,35.70
2022-11-29T22:19:13.088Z,35.35
2022-11-29T22:21:40.702Z,38.67
2022-11-29T22:24:08.964Z,35.70
2022-11-29T22:26:36.158Z,35.58
2022-11-29T22:29:03.397Z,35.92
2022-11-29T22:31:30.592Z,36.17
2022-11-29T22:33:57.917Z,42.25
2022-11-29T22:36:25.378Z,40.17
2022-11-29T22:38:52.533Z,38.55
2022-11-29T22:41:19.789Z,39.75
2022-11-29T22:43:46.981Z,38.85
2022-11-29T22:46:21.615Z,42.45
2022-11-29T22:48:50.790Z,40.45
2022-11-29T22:51:19.607Z,36.92
2022-11-29T22:53:51.222Z,36.97
2022-11-29T22:56:19.201Z,40.50
2022-11-29T22:58:46.958Z,42.35
2022-11-29T23:01:15.492Z,37.53
2022-11-29T23:03:43.771Z,40.95
2022-11-29T23:06:15.375Z,38.40
2022-11-29T23:08:43.467Z,36.97
2022-11-29T23:11:12.544Z,40.08
2022-11-29T23:13:40.444Z,39.78
2022-11-29T23:16:09.256Z,38.40
2022-11-29T23:18:36.918Z,36.60
2022-11-29T23:21:05.106Z,39.03
2022-11-29T23:23:32.578Z,38.22
2022-11-29T23:25:59.953Z,41.33
2022-11-29T23:28:27.251Z,37.30
2022-11-29T23:30:54.508Z,37.13
2022-11-29T23:33:22.531Z,38.17
2022-11-29T23:35:50.317Z,36.20
2022-11-29T23:38:18.012Z,34.05
2022-11-29T23:40:45.164Z,34.30
2022-11-29T23:43:12.341Z,37.97
2022-11-29T23:45:39.850Z,41.38
2022-11-29T23:48:07.199Z,38.15
2022-11-29T23:50:34.671Z,36.40
2022-11-29T23:53:01.821Z,36.33
2022-11-29T23:55:29.365Z,39.45
2022-11-29T23:57:56.503Z,37.47
